sensor_id;sensor_type;location;lat;lon;timestamp;temperature;humidity
484;DHT22;228;48.922;12.198;2023-12-29T05:01:22;9.60;93.30
484;DHT22;228;48.922;12.198;2023-12-29T05:03:48;9.20;93.30
484;DHT22;228;48.922;12.198;2023-12-29T05:06:14;9.10;93.80
484;DHT22;228;48.922;12.198;2023-12-29T05:08:40;9.20;93.70
484;DHT22;228;48.922;12.198;2023-12-29T05:11:06;9.30;93.80
484;DHT22;228;48.922;12.198;2023-12-29T05:13:32;9.30;93.30
484;DHT22;228;48.922;12.198;2023-12-29T05:15:58;9.20;93.40
484;DHT22;228;48.922;12.198;2023-12-29T05:18:26;9.20;93.70
484;DHT22;228;48.922;12.198;2023-12-29T05:20:55;9.20;93.60
484;DHT22;228;48.922;12.198;2023-12-29T05:23:21;9.20;93.90
484;DHT22;228;48.922;12.198;2023-12-29T05:25:47;9.20;93.90
484;DHT22;228;48.922;12.198;2023-12-29T05:28:13;9.00;94.00
484;DHT22;228;48.922;12.198;2023-12-29T05:30:39;8.90;94.30
484;DHT22;228;48.922;12.198;2023-12-29T05:33:05;9.00;94.20
484;DHT22;228;48.922;12.198;2023-12-29T05:35:31;8.90;94.20
484;DHT22;228;48.922;12.198;2023-12-29T05:37:57;8.80;94.60
484;DHT22;228;48.922;12.198;2023-12-29T05:40:23;8.70;94.70
484;DHT22;228;48.922;12.198;2023-12-29T05:42:49;8.80;94.60
484;DHT22;228;48.922;12.198;2023-12-29T05:45:18;8.80;94.50
484;DHT22;228;48.922;12.198;2023-12-29T05:47:44;8.60;94.70
484;DHT22;228;48.922;12.198;2023-12-29T05:50:10;8.70;94.80
484;DHT22;228;48.922;12.198;2023-12-29T09:46:37;13.20;79.90
484;DHT22;228;48.922;12.198;2023-12-29T09:49:06;13.40;80.00
484;DHT22;228;48.922;12.198;2023-12-29T09:51:34;13.30;80.00
484;DHT22;228;48.922;12.198;2023-12-29T09:54:03;13.60;79.40
484;DHT22;228;48.922;12.198;2023-12-29T09:56:30;13.90;79.60
484;DHT22;228;48.922;12.198;2023-12-29T09:58:56;13.30;80.60
484;DHT22;228;48.922;12.198;2023-12-29T10:01:23;13.30;81.70
484;DHT22;228;48.922;12.198;2023-12-29T10:03:49;13.40;80.00
484;DHT22;228;48.922;12.198;2023-12-29T10:06:20;13.20;80.10
484;DHT22;228;48.922;12.198;2023-12-29T10:08:49;13.20;81.50
484;DHT22;228;48.922;12.198;2023-12-29T10:11:18;13.20;81.20
484;DHT22;228;48.922;12.198;2023-12-29T10:13:49;13.00;80.80
484;DHT22;228;48.922;12.198;2023-12-29T10:16:53;13.00;81.80
484;DHT22;228;48.922;12.198;2023-12-29T10:19:35;13.10;81.40
484;DHT22;228;48.922;12.198;2023-12-29T10:22:15;13.10;81.50
484;DHT22;228;48.922;12.198;2023-12-29T10:24:44;13.10;82.60
484;DHT22;228;48.922;12.198;2023-12-29T10:27:13;13.10;81.90
484;DHT22;228;48.922;12.198;2023-12-29T10:29:39;13.30;81.20
484;DHT22;228;48.922;12.198;2023-12-29T10:32:05;13.60;80.20
484;DHT22;228;48.922;12.198;2023-12-29T10:34:34;13.40;80.10
484;DHT22;228;48.922;12.198;2023-12-29T10:37:01;13.30;81.20
484;DHT22;228;48.922;12.198;2023-12-29T10:39:35;13.10;81.30
484;DHT22;228;48.922;12.198;2023-12-29T10:42:06;13.30;82.60
484;DHT22;228;48.922;12.198;2023-12-29T10:44:33;13.70;80.90
484;DHT22;228;48.922;12.198;2023-12-29T10:47:10;13.90;80.90
484;DHT22;228;48.922;12.198;2023-12-29T10:49:39;13.50;81.20
484;DHT22;228;48.922;12.198;2023-12-29T10:52:13;13.70;81.30
484;DHT22;228;48.922;12.198;2023-12-29T10:54:43;13.80;81.20
484;DHT22;228;48.922;12.198;2023-12-29T10:57:11;14.10;79.60
484;DHT22;228;48.922;12.198;2023-12-29T10:59:40;14.40;79.50
484;DHT22;228;48.922;12.198;2023-12-29T11:02:06;14.10;77.90
484;DHT22;228;48.922;12.198;2023-12-29T11:04:34;14.10;78.80
484;DHT22;228;48.922;12.198;2023-12-29T11:07:04;13.70;78.90
484;DHT22;228;48.922;12.198;2023-12-29T11:09:31;13.50;80.20
484;DHT22;228;48.922;12.198;2023-12-29T11:12:04;13.50;80.80
484;DHT22;228;48.922;12.198;2023-12-29T11:14:31;13.60;81.00
484;DHT22;228;48.922;12.198;2023-12-29T11:16:58;13.70;81.50
484;DHT22;228;48.922;12.198;2023-12-29T11:19:26;13.80;80.90
484;DHT22;228;48.922;12.198;2023-12-29T11:21:55;14.10;80.50
484;DHT22;228;48.922;12.198;2023-12-29T11:24:24;14.30;79.50
484;DHT22;228;48.922;12.198;2023-12-29T11:26:51;14.40;79.90
484;DHT22;228;48.922;12.198;2023-12-29T11:29:17;14.70;78.90
484;DHT22;228;48.922;12.198;2023-12-29T11:31:45;15.20;77.50
484;DHT22;228;48.922;12.198;2023-12-29T11:34:28;14.90;76.50
484;DHT22;228;48.922;12.198;2023-12-29T11:37:31;14.50;78.90
484;DHT22;228;48.922;12.198;2023-12-29T11:40:19;14.30;79.90
484;DHT22;228;48.922;12.198;2023-12-29T11:42:49;13.90;81.60
484;DHT22;228;48.922;12.198;2023-12-29T11:45:25;13.90;81.50
484;DHT22;228;48.922;12.198;2023-12-29T11:47:54;13.70;81.90
484;DHT22;228;48.922;12.198;2023-12-29T11:50:36;13.70;82.90
484;DHT22;228;48.922;12.198;2023-12-29T11:53:04;13.60;82.90
484;DHT22;228;48.922;12.198;2023-12-29T11:55:38;13.70;83.60
484;DHT22;228;48.922;12.198;2023-12-29T11:58:26;13.70;83.80
484;DHT22;228;48.922;12.198;2023-12-29T12:00:55;13.30;84.10
484;DHT22;228;48.922;12.198;2023-12-29T12:03:26;13.30;84.80
484;DHT22;228;48.922;12.198;2023-12-29T12:05:54;13.50;84.00
484;DHT22;228;48.922;12.198;2023-12-29T12:08:34;13.70;84.20
484;DHT22;228;48.922;12.198;2023-12-29T12:13:55;14.40;81.10
484;DHT22;228;48.922;12.198;2023-12-29T12:16:47;15.50;91.30
484;DHT22;228;48.922;12.198;2023-12-29T12:19:19;14.90;89.90
484;DHT22;228;48.922;12.198;2023-12-29T12:21:47;14.80;85.70
484;DHT22;228;48.922;12.198;2023-12-29T12:24:19;14.70;83.00
484;DHT22;228;48.922;12.198;2023-12-29T12:26:48;14.70;81.30
484;DHT22;228;48.922;12.198;2023-12-29T12:29:16;14.90;80.40
484;DHT22;228;48.922;12.198;2023-12-29T12:31:55;14.80;81.10
484;DHT22;228;48.922;12.198;2023-12-29T12:34:23;14.80;81.20
484;DHT22;228;48.922;12.198;2023-12-29T12:36:50;14.60;80.90
484;DHT22;228;48.922;12.198;2023-12-29T12:39:17;14.30;82.10
484;DHT22;228;48.922;12.198;2023-12-29T12:41:44;14.10;82.80
484;DHT22;228;48.922;12.198;2023-12-29T12:44:13;13.90;83.70
484;DHT22;228;48.922;12.198;2023-12-29T12:46:56;14.10;83.80
484;DHT22;228;48.922;12.198;2023-12-29T12:49:23;14.20;82.60
484;DHT22;228;48.922;12.198;2023-12-29T12:51:49;14.20;82.90
484;DHT22;228;48.922;12.198;2023-12-29T12:54:19;14.10;82.50
484;DHT22;228;48.922;12.198;2023-12-29T12:56:46;14.10;83.30
484;DHT22;228;48.922;12.198;2023-12-29T12:59:13;14.10;82.80
484;DHT22;228;48.922;12.198;2023-12-29T13:01:40;13.80;83.40
484;DHT22;228;48.922;12.198;2023-12-29T13:04:07;14.00;84.00
484;DHT22;228;48.922;12.198;2023-12-29T13:06:34;14.00;83.20
484;DHT22;228;48.922;12.198;2023-12-29T13:09:06;13.60;84.50
484;DHT22;228;48.922;12.198;2023-12-29T13:11:39;13.80;84.60
484;DHT22;228;48.922;12.198;2023-12-29T13:14:08;13.70;84.10
484;DHT22;228;48.922;12.198;2023-12-29T13:16:35;13.70;85.20
484;DHT22;228;48.922;12.198;2023-12-29T13:19:22;13.90;85.00
484;DHT22;228;48.922;12.198;2023-12-29T13:21:54;14.00;84.90
484;DHT22;228;48.922;12.198;2023-12-29T13:24:24;14.00;83.90
484;DHT22;228;48.922;12.198;2023-12-29T13:26:55;13.80;84.50
484;DHT22;228;48.922;12.198;2023-12-29T13:29:23;14.00;84.50
484;DHT22;228;48.922;12.198;2023-12-29T13:37:48;13.90;84.00
484;DHT22;228;48.922;12.198;2023-12-29T13:40:28;13.60;85.10
484;DHT22;228;48.922;12.198;2023-12-29T13:43:02;13.50;85.40
484;DHT22;228;48.922;12.198;2023-12-29T13:45:32;13.50;86.70
484;DHT22;228;48.922;12.198;2023-12-29T13:47:59;13.70;85.60
484;DHT22;228;48.922;12.198;2023-12-29T13:50:26;13.90;85.40
484;DHT22;228;48.922;12.198;2023-12-29T13:52:52;14.10;84.30
484;DHT22;228;48.922;12.198;2023-12-29T13:55:22;14.30;84.20
484;DHT22;228;48.922;12.198;2023-12-29T13:57:49;14.20;83.50
484;DHT22;228;48.922;12.198;2023-12-29T14:00:19;13.90;84.80
484;DHT22;228;48.922;12.198;2023-12-29T14:03:10;14.10;85.20
484;DHT22;228;48.922;12.198;2023-12-29T14:05:51;14.00;84.30
484;DHT22;228;48.922;12.198;2023-12-29T14:08:24;14.10;84.70
484;DHT22;228;48.922;12.198;2023-12-29T14:10:57;13.90;84.40
484;DHT22;228;48.922;12.198;2023-12-29T14:13:23;13.90;85.20
484;DHT22;228;48.922;12.198;2023-12-29T14:15:50;14.00;85.00
484;DHT22;228;48.922;12.198;2023-12-29T14:21:40;14.10;83.60
484;DHT22;228;48.922;12.198;2023-12-29T14:24:14;13.90;84.80
484;DHT22;228;48.922;12.198;2023-12-29T14:26:56;13.80;84.20
484;DHT22;228;48.922;12.198;2023-12-29T14:29:23;13.60;85.60
484;DHT22;228;48.922;12.198;2023-12-29T14:31:50;13.80;85.30
484;DHT22;228;48.922;12.198;2023-12-29T14:34:21;13.90;85.10
484;DHT22;228;48.922;12.198;2023-12-29T14:36:48;14.10;84.30
484;DHT22;228;48.922;12.198;2023-12-29T14:39:14;14.20;84.00
484;DHT22;228;48.922;12.198;2023-12-29T14:41:41;14.30;83.20
484;DHT22;228;48.922;12.198;2023-12-29T14:44:08;14.20;83.50
484;DHT22;228;48.922;12.198;2023-12-29T14:46:35;14.20;83.50
484;DHT22;228;48.922;12.198;2023-12-29T14:49:02;14.20;83.50
484;DHT22;228;48.922;12.198;2023-12-29T14:51:28;14.20;83.50
484;DHT22;228;48.922;12.198;2023-12-29T14:53:54;14.20;83.10
484;DHT22;228;48.922;12.198;2023-12-29T14:56:20;14.00;83.90
484;DHT22;228;48.922;12.198;2023-12-29T14:58:48;13.80;83.90
484;DHT22;228;48.922;12.198;2023-12-29T15:01:14;13.30;84.70
484;DHT22;228;48.922;12.198;2023-12-29T15:03:40;13.10;84.60
484;DHT22;228;48.922;12.198;2023-12-29T15:06:06;13.00;85.60
484;DHT22;228;48.922;12.198;2023-12-29T15:08:32;12.90;85.30
484;DHT22;228;48.922;12.198;2023-12-29T15:11:06;12.80;85.60
484;DHT22;228;48.922;12.198;2023-12-29T15:13:33;12.60;86.70
484;DHT22;228;48.922;12.198;2023-12-29T15:16:00;12.60;86.80
484;DHT22;228;48.922;12.198;2023-12-29T15:18:28;12.60;87.00
484;DHT22;228;48.922;12.198;2023-12-29T15:20:56;12.50;86.90
484;DHT22;228;48.922;12.198;2023-12-29T15:23:23;12.30;87.90
484;DHT22;228;48.922;12.198;2023-12-29T15:25:49;12.50;86.90
484;DHT22;228;48.922;12.198;2023-12-29T15:28:16;12.40;87.30
484;DHT22;228;48.922;12.198;2023-12-29T15:30:44;12.70;86.70
484;DHT22;228;48.922;12.198;2023-12-29T15:33:11;12.60;86.70
484;DHT22;228;48.922;12.198;2023-12-29T15:35:39;12.60;86.90
484;DHT22;228;48.922;12.198;2023-12-29T15:38:06;12.30;87.50
484;DHT22;228;48.922;12.198;2023-12-29T15:40:33;12.40;87.40
484;DHT22;228;48.922;12.198;2023-12-29T15:42:59;12.30;87.90
484;DHT22;228;48.922;12.198;2023-12-29T15:45:25;12.20;88.10
484;DHT22;228;48.922;12.198;2023-12-29T15:47:51;12.00;88.60
484;DHT22;228;48.922;12.198;2023-12-29T15:50:17;12.30;88.20
484;DHT22;228;48.922;12.198;2023-12-29T15:52:44;12.30;88.50
484;DHT22;228;48.922;12.198;2023-12-29T15:55:11;12.40;88.10
484;DHT22;228;48.922;12.198;2023-12-29T15:57:37;12.30;87.90
484;DHT22;228;48.922;12.198;2023-12-29T16:00:04;12.20;88.40
484;DHT22;228;48.922;12.198;2023-12-29T16:02:37;12.30;88.60
484;DHT22;228;48.922;12.198;2023-12-29T16:05:03;12.20;88.40
484;DHT22;228;48.922;12.198;2023-12-29T16:07:29;12.10;89.30
484;DHT22;228;48.922;12.198;2023-12-29T16:09:57;12.20;89.00
484;DHT22;228;48.922;12.198;2023-12-29T16:12:23;12.00;89.60
484;DHT22;228;48.922;12.198;2023-12-29T16:14:49;11.80;89.90
484;DHT22;228;48.922;12.198;2023-12-29T16:17:15;11.90;90.00
484;DHT22;228;48.922;12.198;2023-12-29T16:19:41;11.80;90.10
484;DHT22;228;48.922;12.198;2023-12-29T16:22:08;12.00;90.00
484;DHT22;228;48.922;12.198;2023-12-29T16:24:38;12.20;89.60
484;DHT22;228;48.922;12.198;2023-12-29T16:27:07;11.90;90.10
484;DHT22;228;48.922;12.198;2023-12-29T16:29:33;11.70;90.20
484;DHT22;228;48.922;12.198;2023-12-29T16:32:00;11.60;90.50
484;DHT22;228;48.922;12.198;2023-12-29T16:34:26;11.60;90.60
484;DHT22;228;48.922;12.198;2023-12-29T16:36:59;11.70;90.20
484;DHT22;228;48.922;12.198;2023-12-29T16:39:26;11.60;90.40
484;DHT22;228;48.922;12.198;2023-12-29T16:41:53;11.70;90.50
484;DHT22;228;48.922;12.198;2023-12-29T16:44:19;11.50;90.50
484;DHT22;228;48.922;12.198;2023-12-29T16:46:45;11.40;90.70
484;DHT22;228;48.922;12.198;2023-12-29T16:49:11;11.40;90.90
484;DHT22;228;48.922;12.198;2023-12-29T16:51:37;11.60;90.70
484;DHT22;228;48.922;12.198;2023-12-29T16:54:04;11.70;90.20
484;DHT22;228;48.922;12.198;2023-12-29T16:56:30;11.60;90.30
484;DHT22;228;48.922;12.198;2023-12-29T16:58:57;11.80;90.00
484;DHT22;228;48.922;12.198;2023-12-29T17:01:25;11.60;90.10
484;DHT22;228;48.922;12.198;2023-12-29T17:03:52;11.50;90.30
484;DHT22;228;48.922;12.198;2023-12-29T17:06:20;11.60;90.30
484;DHT22;228;48.922;12.198;2023-12-29T17:08:47;11.40;90.30
484;DHT22;228;48.922;12.198;2023-12-29T17:17:09;11.00;91.20
484;DHT22;228;48.922;12.198;2023-12-29T17:19:37;11.20;90.90
484;DHT22;228;48.922;12.198;2023-12-29T17:22:04;11.20;91.00
484;DHT22;228;48.922;12.198;2023-12-29T17:24:34;11.40;90.30
484;DHT22;228;48.922;12.198;2023-12-29T17:27:05;11.20;90.50
484;DHT22;228;48.922;12.198;2023-12-29T17:32:31;10.90;90.60
